METAR Data
IDs: Format: Raw Decoded Include TAF

Data at: 0826 UTC 01 Aug 2021

EGCC 010820Z AUTO VRB02KT 9999 FEW011 BKN018 BKN029 13/12 Q1011 NOSIG